Time;durP1;ratioP1;P1;durP2;ratioP2;P2;SDS_P1;SDS_P2;PMS_P1;PMS_P2;Temp;Humidity;BMP_temperature;BMP_pressure;BME280_temperature;BME280_humidity;BME280_pressure;Samples;Min_cycle;Max_cycle;Signal;HPM_P1;HPM_P2
2022/12/05 00:01:22;;;;;;;26.90;14.75;;;;;;;;;;4962900;28;20062;-62
2022/12/05 00:03:49;;;;;;;31.23;15.85;;;;;;;;;;4982306;28;20046;-62
2022/12/05 00:06:16;;;;;;;22.60;13.57;;;;;;;;;;4981035;28;20050;-62
2022/12/05 00:08:43;;;;;;;28.42;14.98;;;;;;;;;;4998837;28;20047;-63
2022/12/05 00:11:13;;;;;;;24.85;14.52;;;;;;;;;;4981580;28;20073;-63
2022/12/05 00:13:41;;;;;;;27.58;14.98;;;;;;;;;;4999256;28;20499;-64
2022/12/05 00:16:08;;;;;;;22.67;13.65;;;;;;;;;;4999392;28;20043;-63
2022/12/05 00:18:35;;;;;;;27.65;14.73;;;;;;;;;;4982359;28;20091;-63
2022/12/05 00:21:02;;;;;;;26.40;14.85;;;;;;;;;;4983136;28;20046;-63
2022/12/05 00:23:29;;;;;;;24.02;14.27;;;;;;;;;;4980553;28;20048;-64
2022/12/05 00:25:55;;;;;;;25.67;14.77;;;;;;;;;;4997693;28;20052;-64
2022/12/05 00:28:22;;;;;;;26.00;14.68;;;;;;;;;;4998292;28;20050;-64
2022/12/05 00:30:49;;;;;;;26.80;14.18;;;;;;;;;;4997952;28;20046;-64
2022/12/05 00:33:15;;;;;;;25.92;13.93;;;;;;;;;;4993705;28;20046;-64
2022/12/05 00:35:41;;;;;;;21.98;13.90;;;;;;;;;;4977456;28;20054;-64
2022/12/05 00:38:08;;;;;;;25.83;14.30;;;;;;;;;;4996568;28;20030;-64
2022/12/05 00:40:35;;;;;;;23.45;14.07;;;;;;;;;;4995963;28;20050;-64
2022/12/05 00:43:01;;;;;;;25.92;14.65;;;;;;;;;;4979401;28;20042;-64
2022/12/05 00:45:28;;;;;;;23.20;13.98;;;;;;;;;;4978460;28;20050;-63
2022/12/05 00:47:54;;;;;;;23.10;14.93;;;;;;;;;;4992703;28;20046;-64
2022/12/05 00:50:20;;;;;;;23.00;14.95;;;;;;;;;;4974874;28;20100;-63
2022/12/05 00:52:47;;;;;;;24.52;14.30;;;;;;;;;;4992675;28;20085;-63
2022/12/05 00:55:13;;;;;;;24.63;14.40;;;;;;;;;;4974562;28;20042;-64
2022/12/05 00:57:40;;;;;;;22.98;13.93;;;;;;;;;;4992644;28;20510;-64
2022/12/05 01:00:06;;;;;;;24.13;15.18;;;;;;;;;;4992534;28;20034;-64
2022/12/05 01:02:33;;;;;;;22.10;12.88;;;;;;;;;;4975512;28;20043;-64
2022/12/05 01:04:59;;;;;;;23.40;14.32;;;;;;;;;;4991834;28;20097;-64
2022/12/05 01:07:26;;;;;;;27.23;15.50;;;;;;;;;;4975188;28;20046;-64
2022/12/05 01:09:52;;;;;;;27.67;14.55;;;;;;;;;;4992130;28;20491;-62
2022/12/05 01:12:18;;;;;;;25.50;14.93;;;;;;;;;;4974853;28;20069;-62
2022/12/05 01:14:45;;;;;;;25.02;14.38;;;;;;;;;;4974743;28;20038;-63
2022/12/05 01:17:11;;;;;;;23.13;14.60;;;;;;;;;;4991270;28;20164;-63
2022/12/05 01:19:38;;;;;;;25.67;14.25;;;;;;;;;;4992576;28;20042;-63
2022/12/05 01:22:04;;;;;;;25.13;14.02;;;;;;;;;;4974665;28;20502;-64
2022/12/05 01:24:30;;;;;;;25.30;14.35;;;;;;;;;;4974729;28;20097;-64
2022/12/05 01:26:57;;;;;;;23.90;13.98;;;;;;;;;;4974212;28;20403;-63
2022/12/05 01:29:24;;;;;;;28.10;14.68;;;;;;;;;;4992762;28;20046;-63
2022/12/05 01:31:51;;;;;;;30.10;14.77;;;;;;;;;;4975209;28;20058;-63
2022/12/05 01:34:18;;;;;;;24.42;13.60;;;;;;;;;;4992059;28;20039;-63
2022/12/05 01:36:44;;;;;;;25.75;15.35;;;;;;;;;;4991737;28;20040;-64
2022/12/05 01:39:11;;;;;;;26.65;14.52;;;;;;;;;;4992560;28;20050;-63
2022/12/05 01:41:39;;;;;;;24.92;13.38;;;;;;;;;;4974984;28;20042;-63
2022/12/05 01:44:26;;;;;;;27.00;14.68;;;;;;;;;;4992352;28;20042;-63
2022/12/05 01:46:53;;;;;;;24.90;13.75;;;;;;;;;;4951802;28;20077;-63
2022/12/05 01:49:25;;;;;;;24.98;13.93;;;;;;;;;;4992213;28;20046;-63
2022/12/05 01:51:54;;;;;;;24.63;13.65;;;;;;;;;;4992380;28;20050;-63
2022/12/05 01:54:21;;;;;;;23.98;13.10;;;;;;;;;;4992011;28;20050;-63
2022/12/05 01:56:49;;;;;;;24.27;14.20;;;;;;;;;;4991450;28;20399;-64
2022/12/05 01:59:17;;;;;;;25.98;14.52;;;;;;;;;;4975373;28;20038;-64
2022/12/05 02:01:44;;;;;;;22.67;13.15;;;;;;;;;;4995656;28;20121;-64
2022/12/05 02:04:10;;;;;;;21.15;12.60;;;;;;;;;;4995579;28;20089;-64
2022/12/05 02:06:37;;;;;;;21.50;12.55;;;;;;;;;;4977511;28;20054;-64
2022/12/05 02:09:03;;;;;;;22.27;12.52;;;;;;;;;;4995628;28;20053;-64
2022/12/05 02:11:31;;;;;;;22.67;12.85;;;;;;;;;;4995559;28;20043;-63
2022/12/05 02:14:06;;;;;;;21.55;13.40;;;;;;;;;;4977568;28;20054;-64
2022/12/05 02:16:44;;;;;;;21.15;13.75;;;;;;;;;;4994715;28;20046;-63
2022/12/05 02:19:13;;;;;;;21.05;12.73;;;;;;;;;;4995007;28;20046;-62
2022/12/05 02:22:03;;;;;;;22.02;13.20;;;;;;;;;;4977534;28;20466;-63
2022/12/05 02:24:48;;;;;;;23.50;12.95;;;;;;;;;;4958273;28;20058;-64
2022/12/05 02:27:21;;;;;;;25.77;13.13;;;;;;;;;;4977255;28;20427;-64
2022/12/05 02:30:00;;;;;;;21.98;13.27;;;;;;;;;;4995091;28;20034;-64
2022/12/05 02:32:33;;;;;;;22.92;12.00;;;;;;;;;;4977312;28;20049;-63
2022/12/05 02:35:21;;;;;;;22.35;13.23;;;;;;;;;;4977283;28;20046;-63
2022/12/05 02:37:53;;;;;;;29.10;14.52;;;;;;;;;;4994833;28;20490;-62
2022/12/05 02:40:19;;;;;;;27.92;14.65;;;;;;;;;;4977468;28;20034;-63
2022/12/05 02:42:54;;;;;;;22.63;13.95;;;;;;;;;;4994346;28;20046;-64
2022/12/05 02:45:23;;;;;;;27.42;14.23;;;;;;;;;;4993950;28;20068;-64
2022/12/05 02:47:51;;;;;;;22.58;13.20;;;;;;;;;;4994417;28;20459;-64
2022/12/05 02:50:20;;;;;;;21.30;13.32;;;;;;;;;;4994414;28;20570;-63
2022/12/05 02:52:47;;;;;;;22.77;13.25;;;;;;;;;;4976828;28;20054;-67
2022/12/05 02:55:15;;;;;;;26.17;14.05;;;;;;;;;;4993625;28;20050;-64
2022/12/05 02:57:47;;;;;;;24.27;14.20;;;;;;;;;;4976975;28;20042;-64
2022/12/05 03:00:14;;;;;;;24.45;14.38;;;;;;;;;;4976810;28;20066;-64
2022/12/05 03:02:41;;;;;;;22.85;12.88;;;;;;;;;;4994363;28;20090;-64
2022/12/05 03:05:16;;;;;;;26.30;14.57;;;;;;;;;;4976110;28;20085;-64
2022/12/05 03:07:44;;;;;;;22.33;13.48;;;;;;;;;;4976885;28;20140;-63
2022/12/05 03:10:12;;;;;;;26.70;13.68;;;;;;;;;;4994309;28;20108;-63
2022/12/05 03:12:46;;;;;;;22.73;13.27;;;;;;;;;;4975843;28;20064;-65
2022/12/05 03:15:15;;;;;;;22.88;13.45;;;;;;;;;;4993490;28;20042;-64
2022/12/05 03:18:17;;;;;;;21.65;13.27;;;;;;;;;;4994169;28;20517;-64
2022/12/05 03:20:46;;;;;;;17.83;11.32;;;;;;;;;;4915121;29;20437;-64
2022/12/05 03:23:17;;;;;;;23.10;12.73;;;;;;;;;;4979977;28;20058;-63
2022/12/05 03:25:43;;;;;;;18.27;11.27;;;;;;;;;;4994306;28;20054;-63
2022/12/05 03:28:17;;;;;;;17.75;11.15;;;;;;;;;;4976782;28;20519;-64
2022/12/05 03:30:46;;;;;;;19.35;10.77;;;;;;;;;;4994415;28;20129;-64
2022/12/05 03:33:14;;;;;;;17.88;9.68;;;;;;;;;;4976025;28;20279;-63
2022/12/05 03:35:44;;;;;;;15.77;10.32;;;;;;;;;;4993036;28;20039;-64
2022/12/05 03:38:40;;;;;;;14.85;9.32;;;;;;;;;;4993691;28;20053;-64
2022/12/05 03:41:21;;;;;;;12.60;8.18;;;;;;;;;;4980938;28;20121;-64
2022/12/05 03:43:53;;;;;;;15.32;8.82;;;;;;;;;;4993811;28;20497;-64
2022/12/05 03:46:31;;;;;;;13.60;8.07;;;;;;;;;;4993237;28;20142;-64
2022/12/05 03:49:02;;;;;;;13.15;8.75;;;;;;;;;;4975919;28;20054;-64
2022/12/05 03:51:32;;;;;;;12.02;7.72;;;;;;;;;;4993405;28;20562;-63
2022/12/05 03:54:01;;;;;;;11.70;8.10;;;;;;;;;;4993157;28;20499;-64
2022/12/05 03:56:35;;;;;;;12.30;7.88;;;;;;;;;;4992650;28;20113;-63
2022/12/05 03:59:20;;;;;;;11.60;7.50;;;;;;;;;;4993315;28;20052;-63
2022/12/05 04:01:47;;;;;;;14.50;9.27;;;;;;;;;;4976097;28;20043;-64
2022/12/05 04:04:17;;;;;;;13.23;8.23;;;;;;;;;;4993365;28;20137;-64
2022/12/05 04:06:45;;;;;;;12.63;8.25;;;;;;;;;;4975940;28;20069;-64
2022/12/05 04:09:17;;;;;;;14.13;8.88;;;;;;;;;;4993872;28;20046;-64
2022/12/05 04:11:46;;;;;;;15.52;8.85;;;;;;;;;;4976122;28;20069;-64
2022/12/05 04:14:15;;;;;;;31.85;17.65;;;;;;;;;;4976091;28;20092;-63
2022/12/05 04:17:04;;;;;;;14.02;9.05;;;;;;;;;;4992634;28;20101;-63
2022/12/05 04:22:25;;;;;;;15.57;9.00;;;;;;;;;;4993359;28;20157;-63
2022/12/05 04:27:41;;;;;;;15.80;10.07;;;;;;;;;;4993216;28;20059;-63
2022/12/05 04:30:10;;;;;;;17.15;10.02;;;;;;;;;;4975783;28;20046;-63
2022/12/05 04:32:55;;;;;;;18.60;10.55;;;;;;;;;;4993261;28;20048;-63
2022/12/05 04:35:24;;;;;;;16.25;9.60;;;;;;;;;;4992241;28;20042;-63
2022/12/05 04:37:52;;;;;;;16.13;9.27;;;;;;;;;;4975667;28;20047;-63
2022/12/05 04:40:21;;;;;;;16.33;9.68;;;;;;;;;;4975773;28;20045;-62
2022/12/05 04:42:49;;;;;;;15.50;9.57;;;;;;;;;;4975537;28;20046;-63
2022/12/05 04:45:17;;;;;;;14.73;9.20;;;;;;;;;;4974892;28;20049;-64
2022/12/05 04:47:47;;;;;;;16.65;9.60;;;;;;;;;;4975598;28;20050;-63
2022/12/05 04:50:15;;;;;;;15.48;8.75;;;;;;;;;;4992908;28;20390;-64
2022/12/05 04:52:43;;;;;;;17.15;9.93;;;;;;;;;;4975401;28;20047;-64
2022/12/05 04:55:19;;;;;;;14.93;8.57;;;;;;;;;;4974821;28;20042;-63
2022/12/05 04:57:51;;;;;;;14.55;9.20;;;;;;;;;;4992768;28;20042;-63
2022/12/05 05:03:17;;;;;;;14.85;9.18;;;;;;;;;;5067918;23;20403;-68
2022/12/05 05:05:47;;;;;;;16.35;9.65;;;;;;;;;;4902222;29;20056;-67
2022/12/05 05:08:22;;;;;;;14.50;8.80;;;;;;;;;;4905364;29;20048;-66
2022/12/05 05:11:07;;;;;;;15.43;9.23;;;;;;;;;;4904761;29;20052;-65
2022/12/05 05:13:34;;;;;;;17.00;9.30;;;;;;;;;;4887299;29;20040;-67
2022/12/05 05:16:00;;;;;;;15.27;9.40;;;;;;;;;;4885839;29;20049;-67
2022/12/05 05:18:26;;;;;;;14.40;8.77;;;;;;;;;;4892340;29;20045;-67
2022/12/05 05:20:53;;;;;;;15.80;9.48;;;;;;;;;;4895594;29;20100;-67
2022/12/05 05:23:19;;;;;;;13.45;8.68;;;;;;;;;;4910972;29;20048;-67
2022/12/05 05:25:50;;;;;;;14.60;8.88;;;;;;;;;;4893075;29;20049;-67
2022/12/05 05:28:17;;;;;;;14.90;8.32;;;;;;;;;;4892932;29;20053;-67
2022/12/05 05:30:43;;;;;;;12.23;7.72;;;;;;;;;;4889571;29;20056;-67
2022/12/05 05:33:10;;;;;;;14.52;8.60;;;;;;;;;;4888863;29;20148;-66
2022/12/05 05:35:37;;;;;;;17.60;9.32;;;;;;;;;;4885950;29;20059;-66
2022/12/05 05:38:04;;;;;;;12.50;8.20;;;;;;;;;;4909365;29;20045;-66
2022/12/05 05:40:33;;;;;;;12.55;8.40;;;;;;;;;;4893748;29;20084;-66
2022/12/05 05:42:59;;;;;;;15.75;8.68;;;;;;;;;;4894557;29;20167;-66
2022/12/05 05:45:26;;;;;;;14.52;8.70;;;;;;;;;;4889060;29;20048;-67
2022/12/05 05:47:52;;;;;;;12.40;8.13;;;;;;;;;;4904052;29;20051;-65
2022/12/05 05:50:19;;;;;;;14.43;8.07;;;;;;;;;;4886563;29;20470;-65
2022/12/05 05:52:47;;;;;;;16.17;9.18;;;;;;;;;;4886072;29;20553;-68
2022/12/05 05:55:14;;;;;;;12.90;8.02;;;;;;;;;;4869660;29;20130;-67
2022/12/05 05:57:40;;;;;;;11.85;7.90;;;;;;;;;;4884837;29;20041;-67
2022/12/05 06:00:07;;;;;;;12.52;8.70;;;;;;;;;;4901450;29;20451;-66
2022/12/05 06:02:34;;;;;;;14.80;8.60;;;;;;;;;;4901136;29;20413;-67
2022/12/05 06:05:01;;;;;;;13.05;8.40;;;;;;;;;;4884305;29;20116;-68
2022/12/05 06:07:27;;;;;;;13.18;8.02;;;;;;;;;;4886645;29;20533;-67
2022/12/05 06:09:54;;;;;;;13.40;8.00;;;;;;;;;;4903627;29;20458;-68
2022/12/05 06:12:21;;;;;;;15.98;8.45;;;;;;;;;;4901809;29;20052;-66
2022/12/05 06:14:48;;;;;;;13.43;8.45;;;;;;;;;;4901321;29;20045;-67
2022/12/05 06:17:15;;;;;;;15.10;8.48;;;;;;;;;;4899874;29;20060;-66
2022/12/05 06:19:42;;;;;;;15.18;8.70;;;;;;;;;;4868219;29;20340;-67
2022/12/05 06:22:08;;;;;;;13.40;7.97;;;;;;;;;;4883998;29;20056;-66
2022/12/05 06:24:35;;;;;;;11.10;7.25;;;;;;;;;;4901460;29;20041;-69
2022/12/05 06:27:01;;;;;;;12.20;8.02;;;;;;;;;;4884026;29;20397;-68
2022/12/05 06:29:28;;;;;;;10.80;7.43;;;;;;;;;;4901216;29;20426;-67
2022/12/05 06:31:59;;;;;;;13.38;8.20;;;;;;;;;;4901869;29;20075;-69
2022/12/05 06:34:26;;;;;;;11.43;6.93;;;;;;;;;;4901988;29;20400;-68
2022/12/05 06:36:52;;;;;;;13.65;7.90;;;;;;;;;;4883698;29;20052;-68
2022/12/05 06:39:19;;;;;;;11.25;7.30;;;;;;;;;;4883560;29;20578;-68
2022/12/05 06:41:45;;;;;;;13.55;8.55;;;;;;;;;;4885899;29;20055;-68
2022/12/05 06:44:11;;;;;;;10.63;7.32;;;;;;;;;;4884760;29;20109;-68
2022/12/05 06:46:38;;;;;;;11.35;7.22;;;;;;;;;;4882473;29;20498;-68
2022/12/05 06:49:04;;;;;;;11.43;7.60;;;;;;;;;;4884029;29;20049;-68
2022/12/05 06:51:31;;;;;;;12.55;7.63;;;;;;;;;;4900354;29;20048;-68
2022/12/05 06:53:57;;;;;;;12.95;7.32;;;;;;;;;;4883972;29;20071;-68
2022/12/05 06:56:24;;;;;;;10.52;6.45;;;;;;;;;;4900708;29;20045;-69
2022/12/05 06:58:52;;;;;;;12.20;7.63;;;;;;;;;;4885003;29;20041;-67
2022/12/05 07:01:37;;;;;;;14.07;8.40;;;;;;;;;;4900969;29;20051;-68
2022/12/05 07:04:11;;;;;;;10.60;7.07;;;;;;;;;;4884838;29;20049;-68
2022/12/05 07:06:37;;;;;;;12.23;7.32;;;;;;;;;;4884694;29;20540;-68
2022/12/05 07:09:04;;;;;;;10.75;6.53;;;;;;;;;;4884584;29;20045;-67
2022/12/05 07:11:31;;;;;;;12.25;7.90;;;;;;;;;;4901299;29;20054;-68
2022/12/05 07:13:57;;;;;;;11.98;7.80;;;;;;;;;;4884269;29;20088;-67
2022/12/05 07:16:23;;;;;;;11.25;7.65;;;;;;;;;;4883277;29;20041;-67
2022/12/05 07:18:50;;;;;;;11.15;7.10;;;;;;;;;;4868728;29;20053;-68
2022/12/05 07:21:17;;;;;;;12.00;7.47;;;;;;;;;;4884902;29;20048;-68
2022/12/05 07:23:44;;;;;;;11.00;7.15;;;;;;;;;;4900911;29;20045;-68
2022/12/05 07:26:12;;;;;;;14.70;7.93;;;;;;;;;;4867652;29;20061;-68
2022/12/05 07:28:39;;;;;;;14.30;8.20;;;;;;;;;;4883901;29;20053;-69
2022/12/05 07:31:07;;;;;;;11.05;7.53;;;;;;;;;;4900457;29;20051;-69
2022/12/05 07:33:33;;;;;;;18.83;8.70;;;;;;;;;;4900361;29;20166;-68
2022/12/05 07:36:01;;;;;;;11.20;7.38;;;;;;;;;;4882989;29;20048;-68
2022/12/05 07:38:28;;;;;;;11.00;7.05;;;;;;;;;;4883635;29;20048;-68
2022/12/05 07:40:54;;;;;;;13.40;7.47;;;;;;;;;;4883343;29;20060;-67
2022/12/05 07:43:23;;;;;;;13.60;7.82;;;;;;;;;;4883463;29;20409;-66
2022/12/05 07:45:49;;;;;;;14.73;8.20;;;;;;;;;;4866892;29;20052;-69
2022/12/05 07:48:16;;;;;;;15.52;8.73;;;;;;;;;;4900325;29;20055;-68
2022/12/05 07:50:44;;;;;;;14.13;8.77;;;;;;;;;;4883264;29;20056;-69
2022/12/05 07:53:11;;;;;;;14.65;8.48;;;;;;;;;;4882882;29;20068;-67
2022/12/05 07:55:38;;;;;;;14.65;7.95;;;;;;;;;;4882154;29;20052;-68
2022/12/05 07:58:04;;;;;;;17.60;9.15;;;;;;;;;;4882311;29;20045;-67
2022/12/05 08:00:31;;;;;;;14.68;8.60;;;;;;;;;;4882579;29;20119;-67
2022/12/05 08:02:57;;;;;;;17.58;9.77;;;;;;;;;;4882371;29;20048;-68
2022/12/05 08:05:24;;;;;;;18.55;9.48;;;;;;;;;;4898691;29;20047;-67
2022/12/05 08:07:50;;;;;;;17.73;9.38;;;;;;;;;;4882727;29;20052;-67
2022/12/05 08:10:17;;;;;;;22.00;10.45;;;;;;;;;;4882526;29;20450;-67
2022/12/05 08:12:43;;;;;;;22.58;10.00;;;;;;;;;;4899242;29;20055;-67
2022/12/05 08:15:10;;;;;;;20.55;11.02;;;;;;;;;;4898504;29;20409;-67
2022/12/05 08:17:36;;;;;;;20.52;10.30;;;;;;;;;;4883067;29;20045;-67
2022/12/05 08:20:03;;;;;;;18.98;10.52;;;;;;;;;;4868164;29;20052;-69
2022/12/05 08:22:29;;;;;;;20.85;10.73;;;;;;;;;;4882501;29;20502;-67
2022/12/05 08:24:56;;;;;;;20.02;10.38;;;;;;;;;;4891627;29;20033;-67
2022/12/05 08:27:22;;;;;;;21.75;10.95;;;;;;;;;;4903707;29;20036;-67
2022/12/05 08:29:49;;;;;;;24.15;11.90;;;;;;;;;;4880714;29;20108;-68
2022/12/05 08:32:15;;;;;;;23.30;12.57;;;;;;;;;;4899607;29;20096;-68
2022/12/05 08:34:42;;;;;;;25.00;12.27;;;;;;;;;;4882741;29;20055;-68
2022/12/05 08:37:09;;;;;;;22.98;12.13;;;;;;;;;;4881730;29;20104;-68
2022/12/05 08:39:36;;;;;;;21.88;12.25;;;;;;;;;;4882234;29;20045;-68
2022/12/05 08:42:04;;;;;;;26.52;13.15;;;;;;;;;;4882049;29;20048;-68
2022/12/05 08:44:31;;;;;;;28.90;13.50;;;;;;;;;;4882680;29;20044;-68
2022/12/05 08:46:57;;;;;;;23.83;12.70;;;;;;;;;;4900237;29;20049;-69
2022/12/05 08:49:23;;;;;;;26.98;14.20;;;;;;;;;;4898873;29;20060;-68
2022/12/05 08:51:50;;;;;;;30.10;14.05;;;;;;;;;;4899059;29;20036;-67
2022/12/05 08:54:16;;;;;;;22.80;12.80;;;;;;;;;;4899223;29;20051;-67
2022/12/05 08:56:43;;;;;;;24.50;13.20;;;;;;;;;;4881315;29;20417;-67
2022/12/05 08:59:09;;;;;;;27.33;13.52;;;;;;;;;;4899127;29;20045;-67
2022/12/05 09:01:37;;;;;;;24.02;13.32;;;;;;;;;;4882692;29;20497;-67
2022/12/05 09:04:05;;;;;;;25.20;13.02;;;;;;;;;;4882779;29;20059;-67
2022/12/05 09:06:33;;;;;;;24.85;12.85;;;;;;;;;;4866321;29;20497;-67
2022/12/05 09:09:01;;;;;;;26.65;13.35;;;;;;;;;;4899628;29;20052;-67
2022/12/05 09:11:29;;;;;;;28.63;14.35;;;;;;;;;;4882521;29;20040;-68
2022/12/05 09:13:56;;;;;;;27.05;13.35;;;;;;;;;;4899944;29;20040;-67
2022/12/05 09:16:24;;;;;;;26.55;14.05;;;;;;;;;;4898651;29;20521;-68
2022/12/05 09:18:51;;;;;;;28.38;13.90;;;;;;;;;;4882631;29;20143;-67
2022/12/05 09:21:19;;;;;;;23.45;13.65;;;;;;;;;;4882922;29;20040;-67
2022/12/05 09:23:46;;;;;;;26.40;13.52;;;;;;;;;;4882645;29;20049;-68
2022/12/05 09:26:14;;;;;;;28.48;14.77;;;;;;;;;;4898700;29;20520;-68
2022/12/05 09:28:41;;;;;;;25.30;12.93;;;;;;;;;;4882540;29;20064;-69
2022/12/05 09:31:11;;;;;;;27.65;14.68;;;;;;;;;;4883102;29;20441;-68
2022/12/05 09:33:38;;;;;;;29.48;14.18;;;;;;;;;;4899167;29;20048;-68
2022/12/05 09:36:05;;;;;;;24.52;13.27;;;;;;;;;;4881917;29;20040;-68
2022/12/05 09:38:33;;;;;;;27.27;13.20;;;;;;;;;;4898457;29;20424;-68
2022/12/05 09:41:20;;;;;;;27.10;13.93;;;;;;;;;;4882557;29;20068;-68
2022/12/05 09:43:53;;;;;;;26.92;14.68;;;;;;;;;;4882065;29;20540;-68
2022/12/05 09:46:35;;;;;;;24.90;12.70;;;;;;;;;;4882025;29;20045;-67
2022/12/05 09:49:03;;;;;;;28.48;13.63;;;;;;;;;;4882208;29;20366;-69
2022/12/05 09:51:29;;;;;;;22.92;12.80;;;;;;;;;;4899198;29;20079;-68
2022/12/05 09:53:56;;;;;;;25.58;13.10;;;;;;;;;;4867439;29;20045;-68
2022/12/05 09:56:29;;;;;;;22.77;13.27;;;;;;;;;;4899935;29;20056;-67
2022/12/05 09:58:56;;;;;;;23.63;11.85;;;;;;;;;;4884553;29;20045;-68
2022/12/05 10:01:41;;;;;;;28.13;13.63;;;;;;;;;;4869251;29;20064;-68
2022/12/05 10:04:28;;;;;;;27.88;14.48;;;;;;;;;;4867354;29;20131;-68
2022/12/05 10:06:54;;;;;;;24.65;13.27;;;;;;;;;;4881333;29;20045;-67
2022/12/05 10:09:40;;;;;;;25.77;13.68;;;;;;;;;;4881668;29;20453;-67
2022/12/05 10:12:09;;;;;;;29.55;14.43;;;;;;;;;;4898587;29;20132;-67
2022/12/05 10:14:36;;;;;;;28.60;13.75;;;;;;;;;;4882352;29;20059;-67
2022/12/05 10:17:07;;;;;;;31.88;14.35;;;;;;;;;;4881538;29;20047;-69
2022/12/05 10:19:38;;;;;;;28.42;14.32;;;;;;;;;;4881995;29;20049;-67
2022/12/05 10:22:23;;;;;;;32.63;16.38;;;;;;;;;;4900181;29;20074;-68
2022/12/05 10:24:51;;;;;;;25.17;13.27;;;;;;;;;;4902250;29;20040;-68
2022/12/05 10:27:19;;;;;;;27.42;14.27;;;;;;;;;;4884660;29;20045;-68
2022/12/05 10:29:52;;;;;;;26.88;14.73;;;;;;;;;;4901924;29;20041;-68
2022/12/05 10:32:22;;;;;;;29.92;14.65;;;;;;;;;;4884736;29;20076;-68
2022/12/05 10:34:49;;;;;;;28.33;14.80;;;;;;;;;;4869058;29;20048;-69
2022/12/05 10:37:20;;;;;;;26.10;14.55;;;;;;;;;;4884267;29;20064;-66
2022/12/05 10:39:48;;;;;;;22.33;13.57;;;;;;;;;;4901637;29;20087;-68
2022/12/05 10:42:16;;;;;;;28.52;13.85;;;;;;;;;;4887264;29;20036;-68
2022/12/05 10:44:42;;;;;;;25.02;13.57;;;;;;;;;;4889706;29;20048;-68
2022/12/05 10:47:10;;;;;;;23.88;13.02;;;;;;;;;;4872559;29;20414;-69
2022/12/05 10:49:37;;;;;;;24.80;13.23;;;;;;;;;;4904283;29;20057;-69
2022/12/05 10:52:04;;;;;;;26.33;14.25;;;;;;;;;;4884744;29;20512;-68
2022/12/05 10:54:35;;;;;;;25.70;13.00;;;;;;;;;;4885055;29;20581;-67
2022/12/05 10:57:18;;;;;;;23.30;12.27;;;;;;;;;;4884003;29;20425;-67
2022/12/05 10:59:45;;;;;;;21.42;12.10;;;;;;;;;;4884370;29;20405;-67
2022/12/05 11:02:18;;;;;;;23.38;12.65;;;;;;;;;;4884212;29;20056;-67
2022/12/05 11:04:44;;;;;;;23.77;13.32;;;;;;;;;;4884225;29;20425;-68
2022/12/05 11:07:26;;;;;;;21.85;13.30;;;;;;;;;;4883915;29;20051;-67
2022/12/05 11:09:52;;;;;;;23.58;12.38;;;;;;;;;;4900947;29;20490;-67
2022/12/05 11:12:34;;;;;;;22.27;14.10;;;;;;;;;;4903151;29;20045;-70
2022/12/05 11:15:23;;;;;;;19.00;12.32;;;;;;;;;;4900919;29;20060;-67
2022/12/05 11:17:51;;;;;;;21.17;12.45;;;;;;;;;;4902567;29;20041;-67
2022/12/05 11:20:18;;;;;;;21.85;13.57;;;;;;;;;;4902974;29;20052;-69
2022/12/05 11:22:49;;;;;;;24.35;13.43;;;;;;;;;;4867866;29;20084;-69
2022/12/05 11:25:28;;;;;;;19.98;12.23;;;;;;;;;;4899751;29;20931;-67
2022/12/05 11:27:55;;;;;;;19.52;12.77;;;;;;;;;;4899610;29;20053;-67
2022/12/05 11:30:27;;;;;;;18.05;10.68;;;;;;;;;;4900236;29;20120;-68
2022/12/05 11:33:11;;;;;;;18.70;10.85;;;;;;;;;;4882385;29;20497;-68
2022/12/05 11:35:37;;;;;;;14.45;9.68;;;;;;;;;;4883131;29;20143;-68
2022/12/05 11:38:04;;;;;;;16.88;9.57;;;;;;;;;;4883200;29;20045;-68
2022/12/05 11:40:46;;;;;;;14.77;9.18;;;;;;;;;;4868249;29;20068;-68
2022/12/05 11:43:21;;;;;;;13.30;8.75;;;;;;;;;;4901143;29;20055;-68
2022/12/05 11:46:00;;;;;;;12.18;8.32;;;;;;;;;;4883149;29;20052;-67
2022/12/05 11:48:26;;;;;;;9.93;7.18;;;;;;;;;;4884041;29;20083;-68
2022/12/05 11:50:59;;;;;;;14.43;8.52;;;;;;;;;;4868418;29;20482;-66
2022/12/05 11:53:41;;;;;;;11.60;8.13;;;;;;;;;;4898801;29;20049;-66
2022/12/05 11:56:16;;;;;;;9.73;6.65;;;;;;;;;;4899389;29;20053;-67
2022/12/05 11:58:53;;;;;;;12.60;7.32;;;;;;;;;;4870376;29;20052;-67
2022/12/05 12:01:22;;;;;;;12.65;7.63;;;;;;;;;;4884439;29;20108;-67
2022/12/05 12:04:08;;;;;;;11.10;7.10;;;;;;;;;;4901492;29;20048;-67
2022/12/05 12:06:46;;;;;;;9.60;7.15;;;;;;;;;;4883843;29;20049;-67
2022/12/05 12:09:27;;;;;;;12.00;7.60;;;;;;;;;;4884402;29;20052;-68
2022/12/05 12:12:05;;;;;;;13.52;7.90;;;;;;;;;;4899921;29;20092;-67
2022/12/05 12:14:37;;;;;;;11.65;7.95;;;;;;;;;;4882814;29;20480;-68
2022/12/05 12:17:27;;;;;;;14.15;7.75;;;;;;;;;;4903066;29;20037;-66
2022/12/05 12:20:15;;;;;;;11.95;7.50;;;;;;;;;;4891830;29;20059;-67
2022/12/05 12:22:51;;;;;;;10.95;7.03;;;;;;;;;;4894753;29;20049;-68
2022/12/05 12:25:30;;;;;;;10.90;7.25;;;;;;;;;;4886621;29;20063;-67
2022/12/05 12:28:04;;;;;;;9.48;6.53;;;;;;;;;;4882514;29;20072;-69
2022/12/05 12:30:59;;;;;;;13.43;8.02;;;;;;;;;;4898615;29;20382;-65
2022/12/05 12:33:32;;;;;;;12.18;6.95;;;;;;;;;;4800581;29;20131;-67
2022/12/05 12:36:08;;;;;;;10.40;7.10;;;;;;;;;;4881719;29;20057;-66
2022/12/05 12:38:53;;;;;;;10.70;6.43;;;;;;;;;;4898905;29;20092;-67
2022/12/05 12:41:38;;;;;;;10.55;6.85;;;;;;;;;;4882396;29;20037;-68
2022/12/05 12:44:04;;;;;;;6.32;4.95;;;;;;;;;;4881965;29;20056;-67
2022/12/05 12:46:40;;;;;;;9.50;6.05;;;;;;;;;;4880775;29;20049;-67
2022/12/05 12:49:16;;;;;;;9.38;6.45;;;;;;;;;;4865549;29;20510;-67
2022/12/05 12:51:47;;;;;;;10.38;5.63;;;;;;;;;;4881071;29;20429;-67
2022/12/05 12:54:14;;;;;;;8.77;6.00;;;;;;;;;;4897531;29;20130;-67
2022/12/05 12:56:54;;;;;;;6.35;4.45;;;;;;;;;;4897580;29;20044;-66
2022/12/05 12:59:30;;;;;;;7.38;4.72;;;;;;;;;;4881245;29;20049;-67
2022/12/05 13:02:02;;;;;;;11.90;6.15;;;;;;;;;;4882377;23;20052;-63
2022/12/05 13:04:32;;;;;;;8.07;4.15;;;;;;;;;;4915785;29;20048;-63
2022/12/05 13:07:02;;;;;;;6.60;4.40;;;;;;;;;;4914923;29;20139;-62
2022/12/05 13:09:32;;;;;;;8.05;4.97;;;;;;;;;;4915807;29;20052;-63
2022/12/05 13:12:03;;;;;;;4.60;3.67;;;;;;;;;;4908929;29;20048;-63
2022/12/05 13:14:31;;;;;;;5.35;3.92;;;;;;;;;;4896970;29;20048;-64
2022/12/05 13:16:57;;;;;;;4.45;3.75;;;;;;;;;;4896314;29;20048;-62
2022/12/05 13:19:29;;;;;;;6.45;4.32;;;;;;;;;;4896788;29;20127;-64
2022/12/05 13:21:59;;;;;;;4.22;3.47;;;;;;;;;;4896930;29;20051;-64
2022/12/05 13:24:27;;;;;;;5.15;3.75;;;;;;;;;;4896541;29;20041;-63
2022/12/05 13:26:56;;;;;;;7.63;3.78;;;;;;;;;;4879665;29;20037;-64
2022/12/05 13:29:41;;;;;;;5.03;3.40;;;;;;;;;;4896851;29;20052;-64
2022/12/05 13:32:26;;;;;;;11.98;4.72;;;;;;;;;;4896635;29;20045;-64
2022/12/05 13:34:54;;;;;;;10.90;4.35;;;;;;;;;;4897242;29;20165;-65
2022/12/05 13:43:07;;;;;;;4.63;2.75;;;;;;;;;;4897620;29;20069;-64
2022/12/05 13:45:34;;;;;;;8.27;3.63;;;;;;;;;;4896728;29;20041;-64
2022/12/05 13:48:00;;;;;;;4.97;2.78;;;;;;;;;;4897285;29;20045;-64
2022/12/05 13:50:48;;;;;;;6.30;3.25;;;;;;;;;;4880448;29;20059;-65
2022/12/05 13:53:26;;;;;;;2.42;2.17;;;;;;;;;;4897180;29;20048;-64
2022/12/05 13:55:57;;;;;;;4.00;2.83;;;;;;;;;;4896620;29;20052;-65
2022/12/05 13:58:23;;;;;;;4.18;2.90;;;;;;;;;;4900169;29;20048;-64
2022/12/05 14:00:50;;;;;;;4.53;2.75;;;;;;;;;;4900275;29;20044;-64
2022/12/05 14:03:36;;;;;;;2.85;2.35;;;;;;;;;;4900377;29;20493;-64
2022/12/05 14:06:05;;;;;;;3.15;2.45;;;;;;;;;;4899571;29;20048;-65
2022/12/05 14:08:34;;;;;;;3.78;2.75;;;;;;;;;;4900438;29;20048;-65
2022/12/05 14:11:02;;;;;;;3.00;2.50;;;;;;;;;;4899704;29;20044;-64
2022/12/05 14:13:30;;;;;;;4.72;3.25;;;;;;;;;;4882936;29;20143;-65
2022/12/05 14:16:15;;;;;;;6.32;4.15;;;;;;;;;;4882582;29;20052;-64
2022/12/05 14:18:48;;;;;;;5.55;3.90;;;;;;;;;;4882986;29;20112;-64
2022/12/05 14:21:23;;;;;;;5.00;3.90;;;;;;;;;;4899870;29;20108;-65
2022/12/05 14:23:59;;;;;;;3.03;2.72;;;;;;;;;;4899847;29;20067;-64
2022/12/05 14:26:31;;;;;;;6.90;3.03;;;;;;;;;;4899240;29;20104;-65
2022/12/05 14:29:16;;;;;;;3.03;2.47;;;;;;;;;;4899740;29;20049;-64
2022/12/05 14:31:48;;;;;;;2.78;2.53;;;;;;;;;;4899556;29;20504;-64
2022/12/05 14:34:24;;;;;;;3.83;2.75;;;;;;;;;;4882667;29;20045;-64
2022/12/05 14:36:56;;;;;;;6.57;3.22;;;;;;;;;;4882207;29;20056;-65
2022/12/05 14:39:37;;;;;;;3.80;3.22;;;;;;;;;;4899491;29;20064;-64
2022/12/05 14:42:21;;;;;;;3.13;2.83;;;;;;;;;;4899337;29;20041;-62
2022/12/05 14:44:50;;;;;;;3.38;2.60;;;;;;;;;;4882795;29;20052;-63
2022/12/05 14:47:18;;;;;;;4.60;2.90;;;;;;;;;;4882330;29;20044;-65
2022/12/05 14:49:57;;;;;;;3.03;2.63;;;;;;;;;;4898619;29;20053;-65
2022/12/05 14:52:25;;;;;;;33.10;18.77;;;;;;;;;;4881955;29;20064;-65
2022/12/05 14:54:54;;;;;;;3.17;2.83;;;;;;;;;;4898854;29;20048;-65
2022/12/05 14:57:20;;;;;;;7.32;2.85;;;;;;;;;;4898700;29;20471;-65
2022/12/05 14:59:55;;;;;;;3.67;3.22;;;;;;;;;;4898874;29;20096;-65